Terminal Aerodrome Forecast
Issued by NWS Cleveland, OH

Home | Current Version | Previous Version | Text Only | Print | Product List | Glossary Off
Versions: 1 2 3 4 5 6 7 8 9 10 11 12 13 14 15 16 17 18

290
FTUS41 KCLE 092340
TAFYNG
TAF
KYNG 092340Z 1000/1024 24012KT 2SM -SN OVC012
      TEMPO 1000/1004 4SM -SN BR OVC012
     FM100500 26012KT 5SM -SN OVC012
     FM100800 26014KT 5SM HZ OVC012
     FM101400 27012KT 5SM -SHSN OVC012
     FM101700 26012KT 2SM -SN OVC012=

USA.gov is the U.S. government's official web portal to all federal, state and local government web resources and services.